Terminal Aerodrome Forecast
Issued by NWS

Home | Current Version | Previous Version | Text Only | Print | Product List | Glossary On
Versions: 1 2 3 4 5 6 7 8 9 10 11 12 13 14 15 16 17 18 19 20 21 22
000
FTUS43 KIND 020700 AAA
TAFBMG
TAF AMD
KBMG 020701Z 0207/0306 22007KT 3SM -TSRA BR OVC020CB
      TEMPO 0207/0209 1SM +TSRA BR OVC012CB
     FM021500 25008KT 5SM BR VCSH BKN025
     FM021900 25006KT P6SM SCT040 BKN250
     FM030000 26003KT P6SM SCT250
      AMD LTD TO CLD VIS AND WIND TIL 021300=

USA.gov is the U.S. government's official web portal to all federal, state and local government web resources and services.